Search for airport 
image banner adimage banner adimage banner ad
image banner ad

CA247 - Tuktoyaktuk (Imperial)

Located in , Canada

ICAO - , IATA -

Data provided by Airmate  

General information

Coordinates: N69°26'0" W132°57'0"
Elevation is feet MSL.
 
View others Airports in Northwest Territories

Operational data

Special qualification required
Current time UTC:
Current local time:
Weather at : CYUB - James Gruben ( 3 km )
METAR: CYUB 221700Z 09005KT 010V100 15SM OVC170 M04/M05 A2936 RMK AS8 SLP945
TAF: TAF CYUB 221451Z 2215/2303 15006KT P6SM SKC FM221700 08008KT P6SM SCT160 BKN220 FM230100 11012KT P6SM BKN160 RMK NXT FCST BY 221900Z
View NOTAMs / SUP AIP / TFR affecting this airport [VIEW]
Communications frequencies: [VIEW]

Runways:

Airport contact information

Address: Canada

Satellite view of CA247